CheckWX is a tool to help pilots better visualize weather data.  It is not intended as a substitute for an official pre-flight weather briefing.

03:47:42 UTC

KLNC METAR
Lancaster Regional Airport
Lancaster, Texas, USA
Current

33 mins ago

KLNC 220315Z AUTO 00000KT 10SM CLR 28/20 A2994 RMK AO2 T02800201
Observed
Jul-22 @ 03:15 UTC
Visibility
10 SM
Flight Rules
VFR
Cloud Levels
  • Clear skies
Temperature
28°C / 82°F
Dewpoint
20°C / 68°F
Heat Index
29°C / 85°F
Humidity
62%
Altimeter
29.94" Hg
Pressure
1013.92 hPa
Previous

53 mins ago

KLNC 220255Z AUTO 00000KT 10SM CLR 28/20 A2994 RMK AO2 T02800201
Observed
Jul-22 @ 02:55 UTC
Visibility
10 SM
Flight Rules
VFR
Cloud Levels
  • Clear skies
Temperature
28°C / 82°F
Dewpoint
20°C / 68°F
Heat Index
29°C / 85°F
Humidity
62%
Altimeter
29.94" Hg
Pressure
1013.92 hPa
Previous

1 hour ago

KLNC 220235Z AUTO 13003KT 10SM CLR 29/20 A2994 RMK AO2 T02850203
Observed
Jul-22 @ 02:35 UTC
Wind
  • 130° at 3 KTS
Visibility
10 SM
Flight Rules
VFR
Cloud Levels
  • Clear skies
Temperature
29°C / 84°F
Dewpoint
20°C / 68°F
Heat Index
31°C / 87°F
Humidity
58%
Altimeter
29.94" Hg
Pressure
1013.92 hPa